Time;durP1;ratioP1;P1;durP2;ratioP2;P2;SDS_P1;SDS_P2;PMS_P1;PMS_P2;Temp;Humidity;BMP_temperature;BMP_pressure;BME280_temperature;BME280_humidity;BME280_pressure;Samples;Min_cycle;Max_cycle;Signal;HPM_P1;HPM_P2
2022/10/02 00:01:23;;;;;;;13.60;2.55;;;12.00;99.90;;;;;;4936654;29;20059;-73
2022/10/02 00:03:50;;;;;;;5.03;1.90;;;12.00;99.90;;;;;;4936828;29;20063;-73
2022/10/02 00:06:21;;;;;;;7.00;2.17;;;12.00;99.90;;;;;;4937861;29;20495;-73
2022/10/02 00:08:50;;;;;;;8.23;2.60;;;12.00;99.90;;;;;;4955081;28;20486;-73
2022/10/02 00:11:23;;;;;;;7.80;2.40;;;11.90;99.90;;;;;;4935633;29;20118;-73
2022/10/02 00:13:53;;;;;;;14.95;3.20;;;11.90;99.90;;;;;;4936968;29;20158;-73
2022/10/02 00:16:23;;;;;;;;;;;11.80;99.90;;;;;;4936997;29;20063;-73
2022/10/02 00:18:53;;;;;;;9.77;3.35;;;11.70;99.90;;;;;;4954432;29;20017;-73
2022/10/02 00:21:32;;;;;;;12.00;3.38;;;11.60;99.90;;;;;;4937621;29;20059;-73
2022/10/02 00:24:01;;;;;;;13.77;3.10;;;11.60;99.90;;;;;;4936087;29;20062;-73
2022/10/02 00:26:36;;;;;;;12.18;3.25;;;11.50;99.90;;;;;;4954974;29;20055;-74
2022/10/02 00:29:17;;;;;;;11.35;3.67;;;11.40;99.90;;;;;;4954499;29;20047;-74
2022/10/02 00:31:50;;;;;;;7.82;3.30;;;11.40;99.90;;;;;;4954083;29;20492;-73
2022/10/02 00:34:29;;;;;;;11.15;3.95;;;11.30;99.90;;;;;;4954738;29;20438;-73
2022/10/02 00:37:08;;;;;;;10.23;3.53;;;11.20;99.90;;;;;;4951844;29;20515;-73
2022/10/02 00:39:47;;;;;;;16.60;5.25;;;11.20;99.90;;;;;;4934550;29;20051;-72
2022/10/02 00:42:49;;;;;;;20.25;4.63;;;11.10;99.90;;;;;;4918405;29;20503;-72
2022/10/02 00:45:41;;;;;;;12.38;3.92;;;11.10;99.90;;;;;;4934630;29;20051;-73
2022/10/02 00:48:36;;;;;;;14.18;3.80;;;10.90;99.90;;;;;;4919246;29;20067;-73
2022/10/02 00:51:14;;;;;;;18.55;4.15;;;10.90;99.90;;;;;;4939471;29;20054;-73
2022/10/02 00:53:52;;;;;;;12.68;4.60;;;10.80;99.90;;;;;;4938611;29;20066;-73
2022/10/02 00:56:28;;;;;;;18.08;4.78;;;10.80;99.90;;;;;;4922113;29;20056;-73
2022/10/02 00:59:36;;;;;;;14.40;4.65;;;10.70;99.90;;;;;;4921545;29;20115;-73
2022/10/02 01:02:09;;;;;;;13.00;3.75;;;10.70;99.90;;;;;;4903569;29;20055;-73
2022/10/02 01:04:38;;;;;;;18.52;4.45;;;10.60;99.90;;;;;;4938657;29;20048;-73
2022/10/02 01:07:08;;;;;;;11.98;4.63;;;10.60;99.90;;;;;;4928805;29;20054;-73
2022/10/02 01:09:36;;;;;;;20.40;4.87;;;10.50;99.90;;;;;;4957575;29;20412;-73
2022/10/02 01:12:04;;;;;;;13.93;4.40;;;10.50;99.90;;;;;;4941041;29;20071;-73
2022/10/02 01:14:37;;;;;;;13.55;4.80;;;10.40;99.90;;;;;;4939744;29;20062;-74
2022/10/02 01:17:07;;;;;;;11.32;4.55;;;10.50;99.90;;;;;;4957798;29;20439;-73
2022/10/02 01:19:38;;;;;;;10.80;3.75;;;10.40;99.90;;;;;;4940086;29;20047;-73
2022/10/02 01:22:12;;;;;;;11.40;4.70;;;10.40;99.90;;;;;;4958147;29;20092;-74
2022/10/02 01:24:47;;;;;;;13.65;4.00;;;10.40;99.90;;;;;;4940559;29;20052;-74
2022/10/02 01:27:15;;;;;;;13.32;4.38;;;10.40;99.90;;;;;;4940179;29;20055;-74
2022/10/02 01:29:43;;;;;;;15.52;3.95;;;10.40;99.90;;;;;;4940656;29;20059;-72
2022/10/02 01:32:10;;;;;;;9.38;3.60;;;10.40;99.90;;;;;;4957605;29;20051;-73
2022/10/02 01:34:38;;;;;;;17.95;4.50;;;10.40;99.90;;;;;;4952899;29;20051;-73
2022/10/02 01:37:06;;;;;;;12.38;4.15;;;10.40;99.90;;;;;;4921467;29;20052;-73
2022/10/02 01:39:33;;;;;;;14.32;4.00;;;10.40;99.90;;;;;;4922036;29;20055;-72
2022/10/02 01:42:01;;;;;;;16.30;5.75;;;10.40;99.90;;;;;;4937918;29;20055;-72
2022/10/02 01:44:29;;;;;;;17.00;5.55;;;10.40;99.90;;;;;;4921225;29;20056;-71
2022/10/02 01:47:02;;;;;;;14.98;4.60;;;10.40;99.90;;;;;;4920480;29;20051;-72
2022/10/02 01:49:47;;;;;;;19.50;4.20;;;10.40;99.90;;;;;;4920814;29;20063;-72
2022/10/02 01:52:26;;;;;;;12.35;4.05;;;10.40;99.90;;;;;;4938393;29;20051;-73
2022/10/02 01:55:07;;;;;;;10.50;3.42;;;10.40;99.90;;;;;;4921079;29;20047;-72
2022/10/02 01:57:47;;;;;;;19.45;3.55;;;10.40;99.90;;;;;;4921259;29;20056;-72
2022/10/02 02:00:17;;;;;;;14.27;3.85;;;10.40;99.90;;;;;;4920215;29;20048;-72
2022/10/02 02:02:53;;;;;;;14.05;4.03;;;10.40;99.90;;;;;;4937459;29;20083;-73
2022/10/02 02:05:33;;;;;;;20.17;3.88;;;10.50;99.90;;;;;;4928935;29;20063;-73
2022/10/02 02:08:08;;;;;;;14.20;3.80;;;10.50;99.90;;;;;;4956854;29;20075;-73
2022/10/02 02:10:48;;;;;;;13.05;3.95;;;10.50;99.90;;;;;;4956724;29;20302;-73
2022/10/02 02:13:26;;;;;;;8.85;3.00;;;10.50;99.90;;;;;;4956921;29;20062;-72
2022/10/02 02:15:59;;;;;;;17.35;3.80;;;10.50;99.90;;;;;;4956069;29;20139;-73
2022/10/02 02:18:33;;;;;;;14.88;3.95;;;10.50;99.90;;;;;;4957114;29;20059;-73
2022/10/02 02:21:06;;;;;;;18.35;4.13;;;10.50;99.90;;;;;;4923852;29;20465;-74
2022/10/02 02:23:36;;;;;;;16.58;3.72;;;10.50;99.90;;;;;;4920175;29;20407;-73
2022/10/02 02:26:06;;;;;;;16.88;4.15;;;10.50;99.90;;;;;;4937814;29;20048;-73
2022/10/02 02:28:36;;;;;;;12.73;3.58;;;10.50;99.90;;;;;;4937497;29;20099;-73
2022/10/02 02:31:05;;;;;;;10.48;3.47;;;10.50;99.90;;;;;;4919831;29;20052;-74
2022/10/02 02:33:38;;;;;;;16.75;5.88;;;10.60;99.90;;;;;;4929523;29;20059;-73
2022/10/02 02:36:11;;;;;;;13.20;3.13;;;10.60;99.90;;;;;;4938487;29;20062;-74
2022/10/02 02:38:44;;;;;;;14.45;3.45;;;10.60;99.90;;;;;;4938669;29;20142;-74
2022/10/02 02:41:15;;;;;;;17.38;3.20;;;10.70;99.90;;;;;;4956041;29;20055;-73
2022/10/02 02:43:49;;;;;;;16.73;3.65;;;10.70;99.90;;;;;;4939551;29;20055;-73
2022/10/02 02:46:22;;;;;;;14.77;3.45;;;10.70;99.90;;;;;;4938573;29;20054;-73
2022/10/02 02:48:55;;;;;;;14.20;3.70;;;10.70;99.90;;;;;;4925058;29;20523;-74
2022/10/02 02:51:26;;;;;;;13.52;3.20;;;10.70;99.90;;;;;;4919648;29;20115;-73
2022/10/02 02:53:58;;;;;;;10.10;2.95;;;10.80;99.90;;;;;;4920105;29;20207;-73
2022/10/02 02:56:28;;;;;;;13.15;3.10;;;10.90;99.90;;;;;;4919441;29;20047;-73
2022/10/02 02:59:00;;;;;;;12.50;3.22;;;11.00;99.90;;;;;;4919415;29;20563;-74
2022/10/02 03:01:27;;;;;;;13.07;3.22;;;11.00;99.90;;;;;;4928408;29;20558;-74
2022/10/02 03:03:54;;;;;;;12.65;2.80;;;11.10;99.90;;;;;;4938139;29;20491;-74
2022/10/02 03:06:32;;;;;;;10.88;2.70;;;11.10;99.90;;;;;;4938062;29;20055;-74
2022/10/02 03:09:00;;;;;;;14.63;3.28;;;11.10;99.90;;;;;;4938401;29;20134;-74
2022/10/02 03:11:38;;;;;;;12.88;2.92;;;11.20;99.90;;;;;;4955151;28;20047;-73
2022/10/02 03:14:20;;;;;;;11.10;3.03;;;11.20;99.90;;;;;;4937988;29;20066;-73
2022/10/02 03:16:56;;;;;;;16.70;3.10;;;11.20;99.90;;;;;;4924735;29;20484;-74
2022/10/02 03:19:37;;;;;;;11.90;3.72;;;11.20;99.90;;;;;;4918870;29;20066;-72
2022/10/02 03:22:09;;;;;;;;;;;11.20;99.90;;;;;;4936958;29;20048;-73
2022/10/02 03:24:44;;;;;;;10.25;2.30;;;11.20;99.90;;;;;;4935709;29;19923;-73
2022/10/02 03:27:16;;;;;;;6.93;2.30;;;11.20;99.90;;;;;;4918906;29;20059;-73
2022/10/02 03:29:50;;;;;;;15.70;2.55;;;11.10;99.90;;;;;;4929707;29;20055;-72
2022/10/02 03:32:20;;;;;;;13.07;2.85;;;11.20;99.90;;;;;;4938385;29;20106;-72
2022/10/02 03:34:48;;;;;;;18.58;2.78;;;11.20;99.90;;;;;;4937653;29;20547;-71
2022/10/02 03:37:15;;;;;;;10.70;2.63;;;11.10;99.90;;;;;;4920071;29;20496;-72
2022/10/02 03:39:43;;;;;;;11.63;2.88;;;11.20;99.90;;;;;;4919086;29;20058;-72
2022/10/02 03:42:13;;;;;;;11.43;2.88;;;11.20;99.90;;;;;;4918766;29;20377;-72
2022/10/02 03:44:40;;;;;;;7.82;2.88;;;11.20;99.90;;;;;;4935900;29;20059;-73
2022/10/02 03:47:08;;;;;;;13.32;3.10;;;11.20;99.90;;;;;;4936103;29;20044;-72
2022/10/02 03:49:35;;;;;;;17.27;3.75;;;11.30;99.90;;;;;;4918615;29;20055;-72
2022/10/02 03:52:02;;;;;;;12.75;2.78;;;11.30;99.90;;;;;;4918737;29;20063;-72
2022/10/02 03:54:34;;;;;;;7.97;2.72;;;11.30;99.90;;;;;;4918243;29;20060;-72
2022/10/02 03:57:05;;;;;;;12.32;2.38;;;11.30;99.90;;;;;;4953671;29;20167;-72
2022/10/02 03:59:40;;;;;;;11.18;3.00;;;11.30;99.90;;;;;;4937917;29;20050;-72
2022/10/02 04:02:19;;;;;;;18.23;3.72;;;11.30;99.90;;;;;;4954272;29;20087;-73
2022/10/02 04:04:51;;;;;;;12.93;3.60;;;11.30;99.90;;;;;;4937914;29;20051;-72
2022/10/02 04:07:23;;;;;;;14.05;3.20;;;11.30;99.90;;;;;;4937863;29;20055;-72
2022/10/02 04:09:57;;;;;;;10.80;2.67;;;11.20;99.90;;;;;;4937332;29;20062;-73
2022/10/02 04:12:29;;;;;;;12.27;3.15;;;11.20;99.90;;;;;;4936675;29;20102;-72
2022/10/02 04:15:01;;;;;;;19.10;3.38;;;11.10;99.90;;;;;;4953224;29;20059;-73
2022/10/02 04:17:42;;;;;;;12.63;3.58;;;11.10;99.90;;;;;;4937114;29;20102;-72
2022/10/02 04:20:16;;;;;;;13.98;3.10;;;11.10;99.90;;;;;;4937767;29;20487;-73
2022/10/02 04:22:50;;;;;;;12.00;3.10;;;11.00;99.90;;;;;;4936278;29;20058;-74
2022/10/02 04:25:19;;;;;;;15.13;3.10;;;11.00;99.90;;;;;;4917927;29;20560;-74
2022/10/02 04:27:53;;;;;;;15.00;3.08;;;11.00;99.90;;;;;;4918557;29;20051;-74
2022/10/02 04:30:21;;;;;;;17.48;3.28;;;11.00;99.90;;;;;;4935168;29;20056;-74
2022/10/02 04:32:50;;;;;;;11.55;3.17;;;11.00;99.90;;;;;;4935242;29;20055;-75
2022/10/02 04:35:25;;;;;;;10.60;3.22;;;10.90;99.90;;;;;;4918218;29;20065;-73
2022/10/02 04:38:09;;;;;;;16.50;3.63;;;10.90;99.90;;;;;;4918164;29;20058;-74
2022/10/02 04:40:55;;;;;;;17.77;3.63;;;10.90;99.90;;;;;;4918127;29;20563;-74
2022/10/02 04:43:36;;;;;;;14.02;3.05;;;10.80;99.90;;;;;;4918493;29;20059;-74
2022/10/02 04:46:06;;;;;;;;;;;10.80;99.90;;;;;;4918958;29;20518;-74
2022/10/02 04:49:02;;;;;;;14.25;2.95;;;10.90;99.90;;;;;;4918565;29;19967;-74
2022/10/02 04:51:55;;;;;;;16.48;2.60;;;10.80;99.90;;;;;;4923696;29;20399;-73
2022/10/02 04:54:56;;;;;;;11.70;2.97;;;10.80;99.90;;;;;;4953716;29;20055;-73
2022/10/02 04:57:35;;;;;;;15.50;3.25;;;10.80;99.90;;;;;;4915703;29;20126;-73
2022/10/02 05:00:08;;;;;;;9.45;2.47;;;10.70;99.90;;;;;;4937189;29;20059;-72
2022/10/02 05:02:51;;;;;;;11.80;3.20;;;10.70;99.90;;;;;;4937331;29;20055;-74
2022/10/02 05:05:33;;;;;;;11.40;2.97;;;10.70;99.90;;;;;;4953810;29;20547;-73
2022/10/02 05:08:16;;;;;;;17.27;3.65;;;10.60;99.90;;;;;;4938054;29;20432;-73
2022/10/02 05:11:15;;;;;;;14.18;3.00;;;10.60;99.90;;;;;;4954534;29;20051;-72
2022/10/02 05:14:01;;;;;;;15.07;3.47;;;10.60;99.90;;;;;;4922398;29;20051;-73
2022/10/02 05:16:45;;;;;;;21.77;3.20;;;10.50;99.90;;;;;;4937174;29;20051;-73
2022/10/02 05:19:27;;;;;;;17.23;3.13;;;10.50;99.90;;;;;;4931678;29;20107;-73
2022/10/02 05:22:13;;;;;;;13.65;2.70;;;10.50;99.90;;;;;;4935263;29;20059;-73
2022/10/02 05:24:48;;;;;;;15.38;4.05;;;10.40;99.90;;;;;;4934099;29;20055;-73
2022/10/02 05:27:32;;;;;;;12.82;3.03;;;10.40;99.90;;;;;;4934330;29;20456;-72
2022/10/02 05:30:07;;;;;;;14.75;2.78;;;10.40;99.90;;;;;;4935096;29;20044;-73
2022/10/02 05:33:00;;;;;;;13.18;3.25;;;10.30;99.90;;;;;;4917930;29;20468;-73
2022/10/02 05:36:04;;;;;;;10.15;2.80;;;10.20;99.90;;;;;;4934994;29;20064;-72
2022/10/02 05:39:01;;;;;;;16.05;3.60;;;10.20;99.90;;;;;;4940000;29;20055;-73
2022/10/02 05:41:38;;;;;;;11.07;2.55;;;10.10;99.90;;;;;;4956948;29;20051;-73
2022/10/02 05:44:12;;;;;;;12.95;2.72;;;10.00;99.90;;;;;;4939814;29;20058;-73
2022/10/02 05:46:44;;;;;;;10.43;2.90;;;10.00;99.90;;;;;;4956911;29;20047;-72
2022/10/02 05:49:17;;;;;;;15.15;3.08;;;10.00;99.90;;;;;;4920605;29;20496;-73
2022/10/02 05:51:52;;;;;;;16.35;3.28;;;10.00;99.90;;;;;;4938190;29;20063;-72
2022/10/02 05:54:30;;;;;;;17.10;3.28;;;10.00;99.90;;;;;;4920383;29;20052;-72
2022/10/02 05:57:02;;;;;;;12.68;3.30;;;9.90;99.90;;;;;;4937681;29;20058;-72
2022/10/02 05:59:36;;;;;;;8.45;2.92;;;10.00;99.90;;;;;;4921274;29;20060;-72
2022/10/02 06:02:11;;;;;;;9.88;2.80;;;10.00;99.90;;;;;;4925197;29;20142;-72
2022/10/02 06:04:44;;;;;;;12.05;2.85;;;10.00;99.90;;;;;;4956770;29;20110;-73
2022/10/02 06:07:16;;;;;;;17.95;3.83;;;10.00;99.90;;;;;;4957069;29;20111;-72
2022/10/02 06:09:48;;;;;;;15.88;3.10;;;10.10;99.90;;;;;;4939279;29;20138;-73
2022/10/02 06:12:19;;;;;;;12.30;3.40;;;10.10;99.90;;;;;;4946096;28;20055;-73
2022/10/02 06:14:50;;;;;;;15.75;2.85;;;10.10;99.90;;;;;;4928611;28;20055;-74
2022/10/02 06:17:21;;;;;;;11.20;3.63;;;10.10;99.90;;;;;;4927842;28;20139;-74
2022/10/02 06:19:54;;;;;;;19.05;2.70;;;10.20;99.90;;;;;;4952779;28;20448;-74
2022/10/02 06:22:24;;;;;;;16.73;3.80;;;10.20;99.90;;;;;;4931353;28;20047;-73
2022/10/02 06:24:58;;;;;;;12.07;2.60;;;10.30;99.90;;;;;;4931997;28;20118;-74
2022/10/02 06:27:38;;;;;;;12.13;3.10;;;10.30;99.90;;;;;;4948835;28;20048;-74
2022/10/02 06:30:06;;;;;;;;;;;10.40;99.90;;;;;;4932045;28;20047;-73
2022/10/02 06:32:40;;;;;;;13.35;2.60;;;10.40;99.90;;;;;;4947789;28;19926;-73
2022/10/02 06:35:12;;;;;;;19.58;3.17;;;10.50;99.90;;;;;;4948762;28;20114;-74
2022/10/02 06:37:53;;;;;;;8.63;2.78;;;10.60;99.90;;;;;;4929603;28;20058;-74
2022/10/02 06:40:56;;;;;;;16.17;3.03;;;10.60;99.90;;;;;;4949104;28;20565;-74
2022/10/02 06:43:50;;;;;;;19.95;4.03;;;10.80;99.90;;;;;;4929559;28;20507;-74
2022/10/02 06:46:27;;;;;;;13.10;3.63;;;11.00;99.90;;;;;;4927777;28;20055;-74
2022/10/02 06:49:00;;;;;;;14.70;3.20;;;11.20;99.90;;;;;;4946802;28;20054;-74
2022/10/02 06:51:37;;;;;;;10.88;3.15;;;11.40;99.90;;;;;;4930422;28;20059;-74
2022/10/02 06:54:20;;;;;;;19.38;3.22;;;11.70;99.90;;;;;;4935366;28;20052;-73
2022/10/02 06:57:05;;;;;;;9.93;2.70;;;12.00;99.90;;;;;;4937713;28;20047;-74
2022/10/02 06:59:59;;;;;;;14.35;3.63;;;12.20;99.90;;;;;;4936278;28;20047;-74
2022/10/02 07:02:48;;;;;;;13.95;2.80;;;12.50;99.90;;;;;;4927986;28;20051;-73
2022/10/02 07:05:41;;;;;;;15.35;3.88;;;12.70;99.90;;;;;;4946522;28;20051;-73
2022/10/02 07:08:14;;;;;;;10.20;3.03;;;12.80;99.90;;;;;;4932101;28;20067;-75
2022/10/02 07:10:46;;;;;;;12.23;3.20;;;13.00;99.90;;;;;;4933223;28;20451;-74
2022/10/02 07:13:31;;;;;;;9.65;2.38;;;13.10;99.90;;;;;;4938041;28;20122;-73
2022/10/02 07:16:26;;;;;;;11.73;3.13;;;13.70;99.90;;;;;;4929866;28;20095;-74
2022/10/02 07:19:11;;;;;;;9.50;2.97;;;13.00;99.90;;;;;;4930557;28;20491;-74
2022/10/02 07:21:46;;;;;;;10.98;2.22;;;13.00;99.90;;;;;;4947435;28;20051;-74
2022/10/02 07:24:40;;;;;;;19.55;3.13;;;13.00;99.90;;;;;;4946402;28;20062;-73
2022/10/02 07:27:13;;;;;;;10.82;3.47;;;13.10;99.90;;;;;;4935958;28;20436;-74
2022/10/02 07:29:50;;;;;;;11.75;3.20;;;13.40;99.90;;;;;;4936264;28;20067;-73
2022/10/02 07:32:46;;;;;;;13.35;3.05;;;13.60;99.90;;;;;;4929752;28;20126;-74
2022/10/02 07:35:41;;;;;;;16.38;3.55;;;13.50;99.90;;;;;;4946107;28;20418;-73
2022/10/02 07:38:42;;;;;;;19.45;3.90;;;14.00;99.90;;;;;;4919330;28;20055;-73
2022/10/02 07:41:50;;;;;;;9.10;2.58;;;15.00;99.90;;;;;;4925030;28;20523;-73
2022/10/02 07:44:50;;;;;;;12.52;3.85;;;15.40;99.90;;;;;;4952626;28;20059;-73
2022/10/02 07:47:33;;;;;;;13.00;3.35;;;15.40;99.90;;;;;;4942947;28;20131;-73
2022/10/02 07:50:06;;;;;;;11.95;2.75;;;15.20;99.90;;;;;;4942875;28;20051;-74
2022/10/02 07:52:42;;;;;;;14.00;3.25;;;14.70;99.90;;;;;;4959623;28;20051;-73
2022/10/02 07:55:16;;;;;;;15.32;3.58;;;14.40;99.90;;;;;;4942648;28;20062;-72
2022/10/02 07:57:53;;;;;;;12.95;2.72;;;14.30;99.90;;;;;;4929145;28;20047;-70
2022/10/02 08:00:24;;;;;;;7.95;2.60;;;14.10;99.90;;;;;;4933662;28;20069;-71
2022/10/02 08:02:55;;;;;;;8.88;2.85;;;14.00;99.90;;;;;;4948677;28;20451;-73
2022/10/02 08:05:25;;;;;;;5.45;2.13;;;14.00;99.90;;;;;;4948165;28;20451;-72
2022/10/02 08:07:56;;;;;;;10.48;2.47;;;13.90;99.90;;;;;;4933351;28;20145;-73
2022/10/02 08:10:28;;;;;;;10.77;2.45;;;14.00;99.90;;;;;;4935150;28;20061;-74
2022/10/02 08:13:01;;;;;;;10.23;2.92;;;14.00;99.90;;;;;;4949162;28;20051;-73
2022/10/02 08:15:34;;;;;;;14.27;2.90;;;14.00;99.90;;;;;;4933394;28;20059;-74
2022/10/02 08:18:08;;;;;;;10.35;2.72;;;14.10;99.90;;;;;;4952144;28;20077;-73
2022/10/02 08:20:38;;;;;;;13.82;2.95;;;14.10;99.90;;;;;;4946556;28;20102;-74
2022/10/02 08:23:13;;;;;;;8.80;2.38;;;14.00;99.90;;;;;;4926798;28;20495;-73
2022/10/02 08:25:46;;;;;;;9.45;2.47;;;13.80;99.90;;;;;;4926193;28;20089;-72
2022/10/02 08:28:21;;;;;;;7.65;2.38;;;13.80;99.90;;;;;;4928465;28;20058;-75
2022/10/02 08:30:50;;;;;;;10.50;2.83;;;13.70;99.90;;;;;;4930399;28;20521;-73
2022/10/02 08:33:20;;;;;;;8.07;2.42;;;13.60;99.90;;;;;;4931562;28;20052;-72
2022/10/02 08:36:09;;;;;;;9.60;2.60;;;13.50;99.90;;;;;;4949626;28;20479;-72
2022/10/02 08:38:41;;;;;;;7.72;2.78;;;13.50;99.90;;;;;;4933337;28;20047;-74
2022/10/02 08:41:36;;;;;;;12.52;2.88;;;13.50;99.90;;;;;;4928391;28;20559;-72
2022/10/02 08:44:30;;;;;;;11.95;2.88;;;13.40;99.90;;;;;;4945610;28;20047;-72
2022/10/02 08:47:31;;;;;;;11.27;3.38;;;13.50;99.90;;;;;;4921688;28;20118;-73
2022/10/02 08:50:29;;;;;;;10.40;3.20;;;13.50;99.90;;;;;;4948820;28;20422;-75
2022/10/02 08:53:31;;;;;;;8.35;2.03;;;13.60;99.90;;;;;;4947937;28;20071;-75
2022/10/02 08:56:22;;;;;;;9.48;2.30;;;13.50;99.90;;;;;;4930964;28;20507;-73
2022/10/02 08:59:45;;;;;;;4.63;1.67;;;13.50;99.90;;;;;;4933431;28;20493;-73
2022/10/02 09:02:45;;;;;;;6.22;1.80;;;13.50;99.90;;;;;;4892174;29;20071;-74
2022/10/02 09:05:51;;;;;;;6.87;1.77;;;13.70;99.90;;;;;;4872406;29;20494;-74
2022/10/02 09:08:45;;;;;;;5.60;1.75;;;14.70;99.90;;;;;;4952613;28;20418;-74
2022/10/02 09:11:59;;;;;;;7.25;2.30;;;15.50;99.90;;;;;;4934523;28;20059;-73
2022/10/02 09:14:43;;;;;;;7.93;2.17;;;15.80;99.90;;;;;;4941215;28;20079;-74
2022/10/02 09:17:39;;;;;;;7.32;2.40;;;15.90;99.90;;;;;;4942594;28;20139;-75
2022/10/02 09:20:46;;;;;;;12.18;1.95;;;16.20;99.90;;;;;;4926135;29;20067;-74
2022/10/02 09:23:55;;;;;;;9.48;2.17;;;17.70;99.90;;;;;;4926166;28;20055;-72
2022/10/02 09:26:47;;;;;;;11.90;2.60;;;19.80;99.90;;;;;;4936203;29;20055;-73
2022/10/02 09:29:50;;;;;;;7.13;2.05;;;21.40;99.90;;;;;;4919934;29;20071;-73
2022/10/02 09:32:48;;;;;;;7.15;1.92;;;22.80;99.90;;;;;;4936731;29;20488;-74
2022/10/02 09:35:53;;;;;;;7.25;3.47;;;23.60;99.90;;;;;;4936203;29;20422;-73
2022/10/02 09:39:00;;;;;;;6.70;1.88;;;23.40;99.90;;;;;;4942826;29;20129;-74
2022/10/02 09:41:50;;;;;;;7.65;2.20;;;23.10;99.90;;;;;;4941845;29;20063;-74
2022/10/02 09:44:24;;;;;;;;;;;23.70;99.90;;;;;;4945276;29;20074;-74
2022/10/02 09:47:21;;;;;;;7.18;2.35;;;24.00;99.90;;;;;;4936442;29;19929;-74
2022/10/02 09:50:27;;;;;;;7.47;2.22;;;24.70;99.90;;;;;;4938545;29;20051;-75
2022/10/02 09:53:40;;;;;;;6.25;1.90;;;25.00;98.40;;;;;;4934269;29;20067;-75
2022/10/02 09:56:50;;;;;;;9.70;2.67;;;25.90;98.40;;;;;;4894153;29;20056;-75
2022/10/02 09:59:38;;;;;;;9.60;2.70;;;26.00;97.50;;;;;;4937006;29;20051;-75
2022/10/02 10:02:42;;;;;;;8.02;2.45;;;26.10;97.20;;;;;;4919175;29;20067;-75
2022/10/02 10:05:39;;;;;;;9.75;2.75;;;26.20;94.40;;;;;;4951403;28;20447;-76
2022/10/02 10:08:33;;;;;;;12.27;3.15;;;25.80;94.50;;;;;;4938044;29;20095;-76
2022/10/02 10:11:28;;;;;;;10.05;2.53;;;26.10;95.80;;;;;;4955551;29;20089;-75
2022/10/02 10:14:34;;;;;;;12.40;3.30;;;26.60;93.70;;;;;;4938363;29;20089;-75
2022/10/02 10:17:41;;;;;;;7.45;2.20;;;27.40;93.70;;;;;;4940384;29;20058;-75
2022/10/02 10:20:46;;;;;;;8.65;3.03;;;26.80;92.40;;;;;;4935953;29;20058;-74
2022/10/02 10:23:38;;;;;;;7.07;1.90;;;25.20;94.20;;;;;;4897314;29;20056;-75
2022/10/02 10:26:34;;;;;;;9.82;2.22;;;23.90;94.80;;;;;;4939819;29;20055;-76
2022/10/02 10:29:37;;;;;;;10.05;3.30;;;23.50;96.60;;;;;;4931946;29;20407;-75
2022/10/02 10:32:33;;;;;;;8.05;2.60;;;22.90;97.30;;;;;;4942847;28;20587;-76
2022/10/02 10:35:23;;;;;;;8.15;2.38;;;22.10;98.60;;;;;;4928767;29;20086;-75
2022/10/02 10:41:21;;;;;;;9.82;3.20;;;20.90;99.90;;;;;;4919556;29;20058;-76
2022/10/02 10:44:28;;;;;;;10.57;2.75;;;20.90;99.90;;;;;;4926317;29;20054;-75
2022/10/02 10:47:22;;;;;;;8.77;2.50;;;21.00;99.90;;;;;;4896564;29;20503;-75
2022/10/02 10:50:06;;;;;;;14.15;2.97;;;20.70;99.90;;;;;;4919237;29;20119;-73
2022/10/02 10:53:10;;;;;;;14.70;3.30;;;20.30;99.90;;;;;;4918268;29;20496;-73
2022/10/02 10:56:09;;;;;;;8.18;2.50;;;20.40;99.90;;;;;;4941850;28;20047;-76
2022/10/02 10:58:53;;;;;;;13.02;2.53;;;21.60;99.90;;;;;;4926601;29;20051;-74
2022/10/02 11:01:27;;;;;;;7.85;2.30;;;23.20;99.90;;;;;;4939497;29;20048;-74
2022/10/02 11:04:25;;;;;;;8.80;2.90;;;23.70;96.30;;;;;;4930906;29;20066;-75
2022/10/02 11:07:06;;;;;;;7.63;2.30;;;23.00;94.70;;;;;;4911535;29;20048;-74
2022/10/02 11:09:56;;;;;;;8.75;2.03;;;23.30;96.80;;;;;;4949095;29;20055;-73
2022/10/02 11:12:44;;;;;;;;;;;24.30;95.40;;;;;;4920381;29;20067;-73
2022/10/02 11:15:27;;;;;;;12.80;2.90;;;25.40;94.40;;;;;;4930736;29;19944;-74
2022/10/02 11:18:13;;;;;;;10.30;2.83;;;26.40;92.10;;;;;;4929956;29;20050;-75
2022/10/02 11:21:14;;;;;;;7.20;2.80;;;27.30;90.90;;;;;;4954065;29;20138;-75
2022/10/02 11:24:07;;;;;;;5.85;2.15;;;27.90;87.10;;;;;;4935865;29;20139;-75
2022/10/02 11:26:54;;;;;;;10.00;2.88;;;27.10;85.60;;;;;;4953651;29;20063;-75
2022/10/02 11:29:47;;;;;;;6.60;2.40;;;25.80;86.60;;;;;;4935793;29;20071;-75
2022/10/02 11:32:36;;;;;;;10.70;2.63;;;24.40;89.10;;;;;;4933581;29;20404;-74
2022/10/02 11:35:24;;;;;;;9.05;2.83;;;24.80;90.60;;;;;;4917987;29;20107;-73
2022/10/02 11:38:13;;;;;;;8.55;2.55;;;25.70;90.60;;;;;;4919011;28;20058;-76
2022/10/02 11:40:56;;;;;;;12.03;2.63;;;26.60;85.80;;;;;;4934992;29;20130;-75
2022/10/02 11:43:38;;;;;;;8.50;2.42;;;26.60;85.10;;;;;;4918147;29;20370;-76
2022/10/02 11:46:34;;;;;;;4.78;2.00;;;26.30;84.90;;;;;;4933930;29;20056;-75
2022/10/02 11:49:41;;;;;;;9.27;2.22;;;25.80;86.00;;;;;;4931206;29;20048;-75
2022/10/02 11:52:40;;;;;;;6.88;2.10;;;26.00;86.50;;;;;;4900536;29;20055;-66
2022/10/02 11:55:21;;;;;;;6.63;2.00;;;26.70;84.10;;;;;;4916991;29;20055;-66
2022/10/02 11:57:56;;;;;;;9.27;2.35;;;26.10;84.50;;;;;;4927836;29;20055;-66
2022/10/02 12:00:55;;;;;;;8.15;2.70;;;24.70;86.60;;;;;;4935576;29;20074;-66
2022/10/02 12:03:30;;;;;;;8.30;2.20;;;23.80;89.60;;;;;;4933597;28;20127;-66
2022/10/02 12:06:03;;;;;;;7.00;2.17;;;23.60;91.00;;;;;;4935322;29;20051;-66
2022/10/02 12:08:46;;;;;;;10.50;2.22;;;23.40;90.30;;;;;;4934576;28;20052;-66
2022/10/02 12:11:21;;;;;;;8.90;2.55;;;23.00;90.20;;;;;;4918271;29;20055;-66
2022/10/02 12:14:00;;;;;;;8.98;2.20;;;22.60;91.80;;;;;;4920408;29;20055;-66
2022/10/02 12:16:47;;;;;;;8.27;2.03;;;22.00;92.00;;;;;;4941913;29;20099;-66
2022/10/02 12:19:26;;;;;;;8.13;2.35;;;21.30;93.50;;;;;;4932910;29;20095;-64
2022/10/02 12:27:57;;;;;;;6.05;1.90;;;23.00;93.50;;;;;;4944625;28;20039;-74
2022/10/02 12:30:35;;;;;;;9.02;2.13;;;24.70;92.20;;;;;;4933649;29;20108;-67
2022/10/02 12:33:16;;;;;;;8.07;2.75;;;25.40;90.10;;;;;;4934717;29;20052;-66
2022/10/02 12:36:10;;;;;;;8.07;2.42;;;24.80;88.10;;;;;;4932587;29;20064;-66
2022/10/02 12:38:51;;;;;;;8.82;2.20;;;23.60;89.70;;;;;;4933957;29;20055;-66
2022/10/02 12:41:34;;;;;;;5.78;1.88;;;22.70;91.20;;;;;;4932071;29;20055;-66
2022/10/02 12:44:23;;;;;;;10.85;2.70;;;21.80;92.40;;;;;;4938298;28;20514;-66
2022/10/02 12:47:25;;;;;;;9.65;2.80;;;21.20;93.50;;;;;;4936462;29;20055;-66
2022/10/02 12:50:03;;;;;;;10.10;3.20;;;20.60;95.00;;;;;;4901636;29;20059;-65
2022/10/02 12:53:17;;;;;;;10.50;2.88;;;19.90;97.80;;;;;;4937463;29;20412;-64
2022/10/02 12:56:08;;;;;;;8.63;2.40;;;19.40;99.00;;;;;;4937317;29;20067;-66
2022/10/02 12:58:46;;;;;;;10.63;2.95;;;19.30;99.90;;;;;;4920320;29;20054;-66
2022/10/02 13:01:47;;;;;;;10.63;2.55;;;19.80;99.90;;;;;;4937497;29;20051;-66
2022/10/02 13:04:39;;;;;;;13.48;2.45;;;20.90;98.60;;;;;;4937559;29;20059;-66
2022/10/02 13:07:38;;;;;;;7.40;2.58;;;22.40;96.70;;;;;;4937507;29;20070;-65
2022/10/02 13:10:12;;;;;;;8.82;2.50;;;23.80;93.40;;;;;;4864691;29;20056;-65
2022/10/02 13:13:12;;;;;;;5.95;1.85;;;24.40;90.00;;;;;;4948046;29;20189;-65
2022/10/02 13:15:49;;;;;;;6.97;2.47;;;25.10;90.00;;;;;;4924542;29;20500;-65
2022/10/02 13:18:42;;;;;;;13.13;2.70;;;25.70;88.90;;;;;;4941213;29;20135;-66
2022/10/02 13:21:15;;;;;;;9.15;2.20;;;26.40;86.40;;;;;;4937580;29;20491;-66
2022/10/02 13:23:49;;;;;;;7.30;2.30;;;26.80;86.70;;;;;;4936641;29;20495;-64
2022/10/02 13:26:28;;;;;;;9.10;2.50;;;27.40;85.50;;;;;;4936301;29;20511;-63
2022/10/02 13:29:29;;;;;;;13.80;2.78;;;26.80;81.40;;;;;;4937179;29;20083;-64
2022/10/02 13:32:20;;;;;;;11.07;2.40;;;25.30;83.70;;;;;;4924847;28;20063;-64
2022/10/02 13:35:14;;;;;;;7.88;2.50;;;25.30;85.00;;;;;;4919922;29;20456;-64
2022/10/02 13:37:54;;;;;;;8.43;2.42;;;26.00;83.90;;;;;;4941746;29;20059;-63
2022/10/02 13:40:28;;;;;;;23.83;3.75;;;26.60;83.60;;;;;;4921796;29;20056;-63
2022/10/02 13:43:17;;;;;;;8.63;2.42;;;26.60;82.90;;;;;;4949060;29;20055;-63
2022/10/02 13:45:52;;;;;;;8.85;2.67;;;27.10;83.20;;;;;;4936043;29;20118;-63
2022/10/02 13:48:26;;;;;;;8.00;2.40;;;27.30;82.60;;;;;;4938441;29;20048;-63
2022/10/02 13:51:02;;;;;;;7.57;2.58;;;27.60;79.70;;;;;;4927567;29;20111;-63
2022/10/02 13:53:43;;;;;;;10.48;2.65;;;27.90;78.50;;;;;;4943963;28;20058;-63
2022/10/02 13:56:21;;;;;;;9.50;2.95;;;27.40;77.90;;;;;;4931851;29;20472;-62
2022/10/02 13:59:10;;;;;;;12.65;2.67;;;26.20;80.00;;;;;;4933529;29;20487;-63
2022/10/02 14:01:52;;;;;;;10.40;2.30;;;24.90;81.50;;;;;;4921742;29;20115;-63
2022/10/02 14:04:37;;;;;;;7.40;2.35;;;23.80;84.90;;;;;;4936847;29;20126;-63
2022/10/02 14:07:14;;;;;;;11.55;3.25;;;22.80;88.70;;;;;;4935685;29;20048;-63